createdAt,value
2019-04-14T00:00:49.603Z,86.27
2019-04-14T00:01:50.093Z,86.27
2019-04-14T00:02:49.334Z,86.36
2019-04-14T00:03:50.094Z,86.46
2019-04-14T00:04:49.212Z,86.74
2019-04-14T00:05:49.713Z,86.27
2019-04-14T00:06:50.359Z,86.65
2019-04-14T00:07:49.562Z,86.74
2019-04-14T00:08:50.084Z,86.83
2019-04-14T00:09:49.800Z,86.46
2019-04-14T00:10:48.863Z,86.55
2019-04-14T00:11:48.809Z,86.55
2019-04-14T00:12:49.272Z,86.55
2019-04-14T00:13:48.718Z,86.55
2019-04-14T00:14:49.099Z,86.74
2019-04-14T00:15:50.469Z,86.55
2019-04-14T00:16:48.967Z,86.74
2019-04-14T00:17:48.460Z,86.65
2019-04-14T00:18:49.069Z,86.55
2019-04-14T00:19:48.346Z,86.55
2019-04-14T00:20:49.145Z,86.65
2019-04-14T00:21:48.233Z,86.74
2019-04-14T00:22:49.036Z,86.65
2019-04-14T00:23:48.140Z,86.74
2019-04-14T00:24:48.922Z,86.93
2019-04-14T00:25:48.001Z,86.93
2019-04-14T00:26:48.797Z,86.83
2019-04-14T00:27:47.878Z,87.02
2019-04-14T00:28:49.005Z,86.55
2019-04-14T00:29:47.996Z,86.83
2019-04-14T00:30:47.713Z,86.83
2019-04-14T00:31:48.570Z,86.74
2019-04-14T00:32:48.671Z,86.36
2019-04-14T00:33:47.603Z,86.46
2019-04-14T00:34:48.453Z,86.65
2019-04-14T00:35:47.427Z,86.65
2019-04-14T00:36:48.164Z,86.83
2019-04-14T00:37:47.309Z,86.27
2019-04-14T00:38:47.822Z,86.36
2019-04-14T00:39:47.189Z,86.65
2019-04-14T00:40:47.615Z,86.93
2019-04-14T00:41:51.916Z,86.65
2019-04-14T00:42:47.339Z,86.83
2019-04-14T00:43:46.983Z,86.55
2019-04-14T00:44:47.358Z,86.74
2019-04-14T00:45:51.151Z,87.02
2019-04-14T00:46:47.481Z,86.83
2019-04-14T00:47:57.188Z,86.74
2019-04-14T00:48:47.379Z,86.93
2019-04-14T00:49:46.619Z,87.02
2019-04-14T00:50:47.408Z,86.74
2019-04-14T00:51:46.518Z,86.65
2019-04-14T00:52:46.445Z,87.02
2019-04-14T00:53:46.708Z,86.46
2019-04-14T00:54:46.326Z,86.65
2019-04-14T00:55:46.587Z,86.27
2019-04-14T00:56:46.208Z,86.65
2019-04-14T00:57:46.381Z,86.74
2019-04-14T00:58:46.115Z,87.02
2019-04-14T00:59:46.402Z,86.46
2019-04-14T01:00:47.202Z,86.83
2019-04-14T01:01:46.035Z,86.74
2019-04-14T01:02:46.982Z,86.65
2019-04-14T01:03:45.970Z,86.93
2019-04-14T01:04:46.712Z,87.02
2019-04-14T01:05:45.964Z,86.93
2019-04-14T01:06:46.829Z,86.93
2019-04-14T01:07:45.603Z,86.83
2019-04-14T01:08:46.715Z,87.31
2019-04-14T01:09:46.383Z,86.65
2019-04-14T01:10:45.462Z,87.02
2019-04-14T01:11:46.409Z,87.02
2019-04-14T01:12:45.360Z,87.31
2019-04-14T01:13:46.218Z,86.93
2019-04-14T01:14:45.313Z,86.83
2019-04-14T01:15:54.814Z,87.02
2019-04-14T01:16:45.226Z,87.02
2019-04-14T01:17:45.993Z,87.02
2019-04-14T01:18:45.136Z,87.12
2019-04-14T01:19:45.913Z,86.93
2019-04-14T01:20:44.994Z,87.02
2019-04-14T01:21:45.750Z,87.31
2019-04-14T01:22:44.715Z,87.02
2019-04-14T01:23:45.530Z,87.02
2019-04-14T01:24:44.722Z,87.31
2019-04-14T01:25:45.318Z,87.02
2019-04-14T01:26:44.482Z,87.40
2019-04-14T01:27:45.030Z,87.31
2019-04-14T01:28:44.368Z,87.31
2019-04-14T01:29:44.889Z,87.31
2019-04-14T01:30:44.249Z,87.12
2019-04-14T01:31:44.691Z,87.31
2019-04-14T01:32:44.159Z,87.40
2019-04-14T01:33:44.439Z,87.21
2019-04-14T01:34:44.043Z,87.21
2019-04-14T01:35:44.378Z,86.74
2019-04-14T01:36:43.907Z,87.21
2019-04-14T01:37:44.079Z,87.31
2019-04-14T01:38:44.903Z,87.31
2019-04-14T01:39:43.754Z,87.02
2019-04-14T01:40:44.561Z,87.21
2019-04-14T01:41:43.612Z,87.40
2019-04-14T01:42:44.224Z,87.02
2019-04-14T01:43:43.500Z,87.02
2019-04-14T01:44:43.845Z,87.12
2019-04-14T01:45:43.387Z,87.02
2019-04-14T01:46:43.496Z,87.02
2019-04-14T01:47:44.331Z,87.02
2019-04-14T01:48:43.244Z,87.02
2019-04-14T01:49:44.307Z,87.12
2019-04-14T01:50:43.107Z,87.12
2019-04-14T01:51:44.127Z,87.21
2019-04-14T01:52:43.665Z,87.12
2019-04-14T01:53:42.926Z,87.02
2019-04-14T01:54:43.063Z,87.02
2019-04-14T01:55:43.803Z,87.02
2019-04-14T01:56:42.834Z,87.12
2019-04-14T01:57:43.607Z,87.12
2019-04-14T01:58:42.630Z,86.65
2019-04-14T01:59:43.768Z,87.02
2019-04-14T02:00:42.525Z,86.74
2019-04-14T02:01:42.450Z,86.83
2019-04-14T02:02:42.411Z,86.93
2019-04-14T02:03:43.342Z,87.12
2019-04-14T02:04:42.305Z,86.83
2019-04-14T02:05:43.176Z,86.93
2019-04-14T02:06:42.171Z,87.02
2019-04-14T02:07:42.884Z,86.83
2019-04-14T02:08:42.051Z,87.02
2019-04-14T02:09:42.485Z,87.02
2019-04-14T02:10:41.942Z,87.02
2019-04-14T02:11:42.385Z,87.02
2019-04-14T02:12:43.052Z,86.83
2019-04-14T02:13:42.122Z,87.02
2019-04-14T02:14:42.961Z,86.83
2019-04-14T02:15:42.076Z,86.74
2019-04-14T02:16:48.227Z,86.74
2019-04-14T02:17:41.679Z,86.98
2019-04-14T02:18:42.635Z,86.98
2019-04-14T02:19:41.630Z,86.60
2019-04-14T02:20:42.464Z,86.79
2019-04-14T02:21:41.322Z,86.60
2019-04-14T02:22:41.983Z,86.98
2019-04-14T02:23:41.206Z,86.79
2019-04-14T02:24:41.721Z,86.98
2019-04-14T02:25:41.096Z,86.89
2019-04-14T02:26:41.571Z,86.79
2019-04-14T02:27:40.955Z,86.89
2019-04-14T02:28:41.853Z,86.79
2019-04-14T02:29:40.881Z,86.89
2019-04-14T02:30:49.406Z,86.89
2019-04-14T02:32:13.929Z,86.89
2019-04-14T02:33:11.059Z,86.89
2019-04-14T02:34:08.012Z,86.89
2019-04-14T02:36:19.904Z,86.89
2019-04-14T02:37:13.965Z,86.89
2019-04-14T02:38:13.736Z,86.89
2019-04-14T02:39:11.987Z,86.89
2019-04-14T02:40:11.197Z,86.79
2019-04-14T02:41:13.345Z,87.08
2019-04-14T02:43:09.872Z,86.98
2019-04-14T02:44:24.174Z,87.17
2019-04-14T02:45:12.674Z,87.17
2019-04-14T02:46:02.452Z,87.08
2019-04-14T02:47:27.388Z,87.08
2019-04-14T02:48:29.166Z,87.55
2019-04-14T02:49:04.589Z,87.17
2019-04-14T02:50:15.522Z,87.17
2019-04-14T02:51:14.466Z,87.27
2019-04-14T02:52:04.711Z,87.17
2019-04-14T02:53:07.793Z,87.17
2019-04-14T02:54:07.413Z,87.55
2019-04-14T02:55:05.497Z,86.89
2019-04-14T02:56:08.564Z,87.55
2019-04-14T02:57:10.416Z,86.89
2019-04-14T02:59:05.794Z,87.55
2019-04-14T03:00:11.320Z,87.65
2019-04-14T03:01:10.160Z,87.65
2019-04-14T03:03:10.826Z,87.65
2019-04-14T03:04:04.071Z,87.65
2019-04-14T03:05:02.457Z,87.65
2019-04-14T03:07:05.403Z,87.17
2019-04-14T03:10:00.776Z,87.55
2019-04-14T03:11:03.030Z,87.46
2019-04-14T03:12:01.609Z,87.65
2019-04-14T03:13:09.318Z,87.65
2019-04-14T03:14:11.721Z,87.36
2019-04-14T03:16:09.697Z,87.55
2019-04-14T03:17:14.517Z,87.65
2019-04-14T03:18:24.019Z,87.74
2019-04-14T03:19:00.042Z,87.74
2019-04-14T03:21:11.190Z,87.55
2019-04-14T03:22:18.392Z,87.55
2019-04-14T03:23:05.118Z,87.27
2019-04-14T03:24:07.006Z,87.46
2019-04-14T03:24:52.198Z,87.17
2019-04-14T03:25:59.244Z,87.36
2019-04-14T03:27:07.982Z,87.46
2019-04-14T03:27:58.930Z,87.55
2019-04-14T03:28:56.756Z,87.46
2019-04-14T03:31:24.799Z,87.46
2019-04-14T03:34:30.222Z,87.93
2019-04-14T03:35:30.154Z,87.46
2019-04-14T03:38:13.230Z,87.74
2019-04-14T03:39:05.936Z,87.93
2019-04-14T03:39:58.628Z,87.84
2019-04-14T03:41:13.188Z,87.93
2019-04-14T03:42:00.623Z,87.74
2019-04-14T03:44:06.785Z,87.65
2019-04-14T03:45:03.665Z,87.65
2019-04-14T03:48:34.429Z,87.84
2019-04-14T03:49:32.245Z,87.65
2019-04-14T03:50:06.022Z,87.55
2019-04-14T03:51:06.918Z,87.93
2019-04-14T03:51:59.684Z,88.02
2019-04-14T03:53:06.036Z,88.21
2019-04-14T03:53:58.697Z,87.84
2019-04-14T03:54:54.770Z,88.02
2019-04-14T03:55:43.318Z,88.12
2019-04-14T03:56:35.814Z,88.12
2019-04-14T03:57:36.622Z,87.74
2019-04-14T03:58:35.776Z,87.84
2019-04-14T03:59:36.679Z,87.93
2019-04-14T04:00:35.690Z,88.21
2019-04-14T04:01:36.641Z,87.74
2019-04-14T04:02:35.958Z,88.21
2019-04-14T04:03:35.380Z,88.02
2019-04-14T04:04:35.868Z,87.74
2019-04-14T04:05:35.259Z,88.12
2019-04-14T04:06:35.648Z,87.84
2019-04-14T04:07:36.415Z,88.21
2019-04-14T04:08:35.492Z,88.02
2019-04-14T04:09:35.031Z,87.93
2019-04-14T04:10:35.697Z,88.21
2019-04-14T04:11:34.944Z,88.31
2019-04-14T04:12:35.737Z,88.02
2019-04-14T04:13:34.792Z,88.02
2019-04-14T04:14:35.722Z,88.12
2019-04-14T04:15:34.677Z,87.84
2019-04-14T04:16:35.534Z,87.74
2019-04-14T04:17:34.562Z,87.93
2019-04-14T04:18:44.765Z,87.93
2019-04-14T04:19:34.440Z,88.02
2019-04-14T04:20:34.995Z,88.21
2019-04-14T04:21:35.359Z,88.21
2019-04-14T04:22:34.739Z,88.40
2019-04-14T04:23:34.212Z,88.12
2019-04-14T04:24:35.135Z,88.12
2019-04-14T04:25:35.177Z,88.21
2019-04-14T04:26:34.378Z,88.21
2019-04-14T04:27:35.154Z,87.93
2019-04-14T04:28:34.177Z,88.31
2019-04-14T04:29:34.954Z,88.49
2019-04-14T04:30:34.068Z,88.49
2019-04-14T04:31:34.974Z,88.21
2019-04-14T04:32:34.079Z,88.21
2019-04-14T04:33:34.745Z,88.40
2019-04-14T04:34:33.847Z,88.02
2019-04-14T04:35:34.644Z,88.02
2019-04-14T04:36:33.511Z,88.31
2019-04-14T04:37:34.415Z,88.12
2019-04-14T04:38:33.470Z,88.31
2019-04-14T04:39:35.275Z,87.84
2019-04-14T04:40:33.377Z,87.93
2019-04-14T04:41:33.976Z,88.12
2019-04-14T04:42:33.101Z,88.12
2019-04-14T04:43:34.028Z,87.84
2019-04-14T04:44:33.471Z,88.21
2019-04-14T04:45:34.098Z,87.93
2019-04-14T04:46:33.145Z,87.84
2019-04-14T04:47:33.704Z,88.21
2019-04-14T04:48:32.927Z,88.02
2019-04-14T04:49:34.105Z,88.12
2019-04-14T04:50:32.648Z,87.84
2019-04-14T04:51:33.279Z,87.84
2019-04-14T04:52:32.528Z,88.40
2019-04-14T04:53:33.064Z,88.02
2019-04-14T04:54:32.410Z,87.93
2019-04-14T04:55:32.848Z,88.21
2019-04-14T04:56:32.295Z,87.93
2019-04-14T04:57:32.780Z,88.40
2019-04-14T04:58:32.765Z,88.31
2019-04-14T04:59:32.173Z,88.02
2019-04-14T05:00:33.073Z,88.02
2019-04-14T05:01:32.006Z,88.40
2019-04-14T05:02:32.936Z,87.93
2019-04-14T05:03:31.884Z,88.49
2019-04-14T05:04:32.746Z,88.40
2019-04-14T05:05:31.780Z,88.12
2019-04-14T05:06:32.891Z,88.40
2019-04-14T05:07:31.732Z,87.93
2019-04-14T05:08:32.590Z,88.49
2019-04-14T05:09:31.641Z,88.40
2019-04-14T05:10:31.480Z,88.31
2019-04-14T05:11:31.630Z,87.93
2019-04-14T05:12:32.625Z,87.84
2019-04-14T05:13:31.377Z,88.21
2019-04-14T05:14:31.246Z,88.40
2019-04-14T05:15:31.293Z,88.31
2019-04-14T05:16:32.381Z,88.21
2019-04-14T05:17:32.012Z,88.40
2019-04-14T05:18:31.293Z,89.06
2019-04-14T05:19:34.812Z,88.49
2019-04-14T05:20:31.362Z,88.02
2019-04-14T05:21:32.058Z,88.40
2019-04-14T05:22:31.101Z,89.06
2019-04-14T05:23:31.993Z,89.06
2019-04-14T05:24:31.088Z,89.16
2019-04-14T05:25:31.747Z,88.87
2019-04-14T05:26:30.899Z,89.06
2019-04-14T05:27:30.520Z,89.06
2019-04-14T05:28:31.031Z,88.49
2019-04-14T05:29:30.383Z,88.49
2019-04-14T05:30:30.709Z,88.31
2019-04-14T05:31:30.893Z,88.40
2019-04-14T05:32:30.552Z,88.31
2019-04-14T05:33:31.379Z,88.31
2019-04-14T05:34:30.455Z,89.06
2019-04-14T05:35:31.224Z,88.12
2019-04-14T05:36:30.326Z,89.06
2019-04-14T05:37:31.069Z,89.16
2019-04-14T05:38:32.157Z,88.31
2019-04-14T05:39:30.695Z,88.21
2019-04-14T05:40:30.006Z,88.21
2019-04-14T05:41:30.789Z,88.31
2019-04-14T05:42:30.163Z,88.40
2019-04-14T05:43:38.689Z,87.93
2019-04-14T05:44:29.716Z,87.84
2019-04-14T05:45:30.555Z,87.84
2019-04-14T05:46:29.625Z,87.84
2019-04-14T05:47:30.442Z,88.21
2019-04-14T05:48:29.431Z,88.21
2019-04-14T05:49:38.220Z,88.40
2019-04-14T05:50:29.244Z,88.21
2019-04-14T05:51:29.092Z,88.40
2019-04-14T05:52:29.611Z,88.49
2019-04-14T05:53:29.001Z,88.12
2019-04-14T05:54:29.647Z,88.59
2019-04-14T05:55:28.855Z,87.93
2019-04-14T05:56:29.634Z,87.93
2019-04-14T05:57:28.746Z,88.59
2019-04-14T05:58:29.650Z,88.12
2019-04-14T05:59:28.641Z,88.21
2019-04-14T06:00:29.861Z,88.12
2019-04-14T06:01:29.217Z,88.02
2019-04-14T06:02:30.439Z,87.84
2019-04-14T06:03:28.427Z,87.65
2019-04-14T06:04:28.589Z,87.36
2019-04-14T06:05:29.549Z,87.27
2019-04-14T06:06:28.221Z,87.46
2019-04-14T06:07:28.168Z,87.55
2019-04-14T06:08:28.127Z,87.46
2019-04-14T06:09:28.051Z,87.02
2019-04-14T06:10:27.992Z,87.02
2019-04-14T06:11:27.937Z,87.12
2019-04-14T06:12:27.879Z,86.83
2019-04-14T06:13:27.852Z,86.83
2019-04-14T06:14:27.799Z,87.02
2019-04-14T06:15:27.704Z,87.02
2019-04-14T06:16:27.643Z,87.21
2019-04-14T06:17:27.590Z,87.02
2019-04-14T06:18:27.556Z,87.02
2019-04-14T06:19:36.399Z,87.02
2019-04-14T06:20:27.410Z,87.21
2019-04-14T06:21:27.358Z,87.12
2019-04-14T06:22:27.314Z,87.12
2019-04-14T06:23:27.268Z,87.40
2019-04-14T06:24:27.184Z,86.83
2019-04-14T06:25:27.136Z,86.65
2019-04-14T06:26:27.069Z,86.65
2019-04-14T06:27:27.014Z,86.65
2019-04-14T06:28:26.975Z,86.74
2019-04-14T06:29:26.904Z,87.02
2019-04-14T06:30:26.841Z,86.83
2019-04-14T06:31:26.796Z,86.65
2019-04-14T06:32:26.725Z,86.36
2019-04-14T06:33:26.697Z,86.93
2019-04-14T06:34:26.611Z,86.55
2019-04-14T06:35:26.558Z,86.36
2019-04-14T06:36:26.495Z,86.27
2019-04-14T06:37:26.435Z,86.22
2019-04-14T06:38:26.404Z,86.31
2019-04-14T06:39:26.330Z,86.60
2019-04-14T06:40:26.269Z,85.99
2019-04-14T06:41:26.210Z,86.36
2019-04-14T06:42:26.156Z,86.12
2019-04-14T06:43:26.115Z,86.03
2019-04-14T06:44:26.070Z,86.31
2019-04-14T06:45:25.983Z,86.22
2019-04-14T06:46:25.922Z,85.84
2019-04-14T06:47:25.880Z,85.55
2019-04-14T06:48:25.809Z,85.84
2019-04-14T06:49:25.775Z,85.65
2019-04-14T06:50:25.697Z,85.55
2019-04-14T06:51:25.641Z,85.84
2019-04-14T06:52:25.581Z,85.36
2019-04-14T06:53:25.526Z,85.93
2019-04-14T06:54:25.502Z,85.84
2019-04-14T06:55:25.415Z,85.27
2019-04-14T06:56:25.353Z,85.55
2019-04-14T06:57:25.300Z,85.36
2019-04-14T06:58:25.241Z,85.74
2019-04-14T06:59:25.213Z,85.93
2019-04-14T07:00:25.133Z,85.84
2019-04-14T07:01:25.074Z,85.27
2019-04-14T07:02:25.014Z,85.84
2019-04-14T07:03:24.957Z,85.65
2019-04-14T07:04:24.933Z,85.46
2019-04-14T07:05:24.842Z,84.94
2019-04-14T07:06:24.790Z,85.74
2019-04-14T07:07:24.736Z,85.08
2019-04-14T07:08:24.671Z,85.69
2019-04-14T07:09:24.640Z,85.84
2019-04-14T07:10:24.562Z,85.46
2019-04-14T07:11:24.501Z,85.46
2019-04-14T07:12:24.442Z,85.65
2019-04-14T07:13:24.391Z,85.27
2019-04-14T07:14:24.359Z,85.27
2019-04-14T07:15:24.276Z,85.46
2019-04-14T07:16:24.220Z,85.36
2019-04-14T07:17:24.162Z,85.50
2019-04-14T07:18:24.108Z,85.78
2019-04-14T07:19:24.072Z,85.22
2019-04-14T07:20:23.995Z,85.74
2019-04-14T07:21:23.939Z,85.74
2019-04-14T07:22:23.879Z,85.36
2019-04-14T07:23:23.822Z,85.55
2019-04-14T07:24:23.792Z,85.46
2019-04-14T07:25:23.715Z,85.84
2019-04-14T07:26:23.650Z,85.74
2019-04-14T07:27:23.595Z,86.12
2019-04-14T07:28:23.539Z,85.65
2019-04-14T07:29:23.532Z,85.55
2019-04-14T07:30:23.429Z,84.99
2019-04-14T07:31:23.374Z,85.60
2019-04-14T07:32:23.316Z,85.13
2019-04-14T07:33:23.255Z,85.88
2019-04-14T07:34:23.227Z,85.50
2019-04-14T07:35:23.148Z,84.65
2019-04-14T07:36:23.084Z,85.03
2019-04-14T07:37:23.033Z,84.46
2019-04-14T07:38:22.971Z,85.31
2019-04-14T07:39:22.942Z,85.41
2019-04-14T07:40:22.861Z,84.65
2019-04-14T07:41:22.797Z,84.84
2019-04-14T07:42:22.747Z,84.55
2019-04-14T07:43:22.688Z,85.41
2019-04-14T07:44:22.653Z,84.74
2019-04-14T07:45:22.574Z,84.59
2019-04-14T07:46:22.520Z,84.69
2019-04-14T07:47:22.463Z,83.74
2019-04-14T07:48:22.411Z,83.65
2019-04-14T07:49:22.375Z,83.94
2019-04-14T07:50:22.293Z,83.46
2019-04-14T07:51:22.241Z,84.03
2019-04-14T07:52:22.178Z,83.65
2019-04-14T07:53:22.127Z,83.74
2019-04-14T07:54:22.095Z,84.03
2019-04-14T07:55:22.013Z,83.46
2019-04-14T07:56:21.961Z,83.46
2019-04-14T07:57:21.903Z,83.84
2019-04-14T07:58:21.842Z,83.94
2019-04-14T07:59:21.826Z,83.74
2019-04-14T08:00:21.734Z,83.84
2019-04-14T08:01:21.680Z,84.12
2019-04-14T08:02:21.625Z,84.50
2019-04-14T08:03:21.561Z,84.78
2019-04-14T08:04:21.538Z,85.07
2019-04-14T08:05:21.454Z,85.26
2019-04-14T08:06:21.396Z,84.59
2019-04-14T08:07:21.341Z,84.69
2019-04-14T08:08:21.286Z,84.12
2019-04-14T08:09:21.228Z,84.31
2019-04-14T08:10:21.196Z,84.50
2019-04-14T08:11:21.117Z,84.50
2019-04-14T08:12:21.063Z,84.31
2019-04-14T08:13:21.036Z,84.78
2019-04-14T08:14:20.951Z,84.31
2019-04-14T08:15:20.924Z,83.74
2019-04-14T08:16:20.832Z,83.55
2019-04-14T08:17:20.782Z,83.08
2019-04-14T08:18:20.725Z,83.31
2019-04-14T08:19:20.670Z,83.08
2019-04-14T08:20:27.399Z,82.23
2019-04-14T08:21:20.554Z,82.98
2019-04-14T08:22:20.498Z,82.36
2019-04-14T08:23:20.445Z,83.59
2019-04-14T08:24:20.381Z,81.98
2019-04-14T08:25:20.360Z,83.17
2019-04-14T08:26:20.280Z,82.79
2019-04-14T08:27:20.224Z,84.03
2019-04-14T08:28:21.387Z,82.51
2019-04-14T08:29:20.106Z,83.84
2019-04-14T08:30:20.074Z,83.94
2019-04-14T08:31:19.999Z,83.46
2019-04-14T08:32:19.940Z,83.97
2019-04-14T08:33:19.883Z,83.50
2019-04-14T08:34:19.827Z,83.50
2019-04-14T08:35:19.792Z,83.69
2019-04-14T08:36:19.710Z,83.12
2019-04-14T08:37:19.657Z,82.74
2019-04-14T08:38:19.602Z,82.46
2019-04-14T08:39:19.547Z,82.55
2019-04-14T08:40:19.515Z,82.65
2019-04-14T08:41:19.435Z,81.41
2019-04-14T08:42:19.382Z,81.60
2019-04-14T08:43:19.325Z,81.70
2019-04-14T08:44:19.270Z,81.51
2019-04-14T08:45:19.241Z,81.23
2019-04-14T08:46:19.154Z,81.60
2019-04-14T08:47:19.103Z,80.94
2019-04-14T08:48:19.041Z,82.03
2019-04-14T08:49:18.992Z,81.07
2019-04-14T08:50:18.957Z,81.17
2019-04-14T08:51:18.875Z,80.79
2019-04-14T08:52:18.833Z,81.93
2019-04-14T08:53:18.763Z,81.26
2019-04-14T08:54:18.710Z,81.84
2019-04-14T08:55:18.677Z,80.60
2019-04-14T08:56:18.604Z,80.69
2019-04-14T08:57:18.550Z,81.07
2019-04-14T08:58:18.486Z,80.13
2019-04-14T08:59:18.431Z,80.60
2019-04-14T09:00:18.403Z,79.46
2019-04-14T09:01:18.320Z,80.22
2019-04-14T09:02:18.269Z,80.22
2019-04-14T09:03:18.209Z,80.32
2019-04-14T09:04:18.153Z,80.32
2019-04-14T09:05:18.130Z,80.13
2019-04-14T09:06:18.042Z,80.41
2019-04-14T09:07:17.987Z,81.17
2019-04-14T09:08:17.930Z,80.88
2019-04-14T09:09:17.877Z,81.55
2019-04-14T09:10:17.842Z,80.51
2019-04-14T09:11:17.768Z,80.55
2019-04-14T09:12:17.713Z,79.79
2019-04-14T09:13:17.656Z,79.69
2019-04-14T09:14:17.600Z,80.64
2019-04-14T09:15:17.570Z,79.69
2019-04-14T09:16:17.493Z,79.22
2019-04-14T09:17:17.438Z,79.31
2019-04-14T09:18:17.382Z,79.69
2019-04-14T09:19:17.336Z,79.88
2019-04-14T09:20:17.295Z,79.97
2019-04-14T09:21:17.221Z,78.93
2019-04-14T09:22:17.157Z,78.93
2019-04-14T09:23:17.113Z,78.27
2019-04-14T09:24:17.046Z,78.64
2019-04-14T09:25:17.018Z,79.03
2019-04-14T09:26:16.939Z,79.03
2019-04-14T09:27:16.991Z,79.69
2019-04-14T09:28:17.348Z,79.69
2019-04-14T09:29:16.770Z,79.50
2019-04-14T09:30:16.744Z,79.31
2019-04-14T09:31:16.665Z,79.22
2019-04-14T09:32:16.611Z,78.64
2019-04-14T09:33:16.557Z,78.64
2019-04-14T09:34:16.497Z,77.89
2019-04-14T09:35:16.470Z,77.41
2019-04-14T09:36:16.397Z,77.70
2019-04-14T09:37:16.336Z,78.88
2019-04-14T09:38:16.274Z,78.40
2019-04-14T09:39:16.227Z,78.21
2019-04-14T09:40:16.251Z,77.92
2019-04-14T09:41:16.116Z,78.02
2019-04-14T09:42:16.064Z,77.07
2019-04-14T09:43:16.026Z,76.88
2019-04-14T09:44:15.957Z,76.88
2019-04-14T09:45:15.898Z,77.45
2019-04-14T09:46:15.871Z,77.17
2019-04-14T09:47:15.788Z,77.07
2019-04-14T09:48:15.736Z,77.92
2019-04-14T09:49:15.677Z,77.45
2019-04-14T09:50:15.637Z,77.36
2019-04-14T09:51:15.594Z,77.36
2019-04-14T09:52:15.515Z,77.17
2019-04-14T09:53:15.468Z,77.64
2019-04-14T09:54:15.400Z,76.31
2019-04-14T09:55:15.352Z,76.50
2019-04-14T09:56:15.319Z,76.12
2019-04-14T09:57:15.546Z,76.97
2019-04-14T09:58:15.191Z,78.11
2019-04-14T09:59:15.136Z,78.21
2019-04-14T10:00:15.076Z,77.64
2019-04-14T10:01:15.052Z,76.88
2019-04-14T10:02:14.979Z,77.36
2019-04-14T10:03:14.927Z,77.73
2019-04-14T10:04:14.862Z,77.39
2019-04-14T10:05:14.807Z,77.01
2019-04-14T10:06:14.789Z,75.30
2019-04-14T10:07:14.699Z,75.96
2019-04-14T10:08:14.645Z,76.92
2019-04-14T10:09:14.590Z,76.16
2019-04-14T10:10:14.596Z,76.44
2019-04-14T10:11:14.503Z,76.35
2019-04-14T10:12:14.427Z,75.78
2019-04-14T10:13:14.380Z,76.25
2019-04-14T10:14:14.327Z,75.78
2019-04-14T10:15:14.261Z,75.21
2019-04-14T10:16:14.244Z,75.02
2019-04-14T10:17:14.162Z,74.54
2019-04-14T10:18:14.106Z,75.11
2019-04-14T10:19:14.047Z,75.11
2019-04-14T10:20:13.998Z,75.78
2019-04-14T10:21:17.491Z,76.25
2019-04-14T10:22:13.885Z,74.92
2019-04-14T10:23:13.835Z,74.16
2019-04-14T10:24:13.779Z,74.07
2019-04-14T10:25:13.733Z,74.63
2019-04-14T10:26:13.700Z,74.54
2019-04-14T10:27:13.616Z,75.30
2019-04-14T10:28:13.575Z,75.21
2019-04-14T10:29:13.512Z,75.30
2019-04-14T10:30:13.451Z,76.16
2019-04-14T10:31:13.422Z,75.30
2019-04-14T10:32:13.347Z,75.78
2019-04-14T10:33:13.296Z,75.40
2019-04-14T10:34:13.242Z,76.06
2019-04-14T10:35:13.192Z,75.59
2019-04-14T10:36:13.157Z,75.21
2019-04-14T10:37:13.080Z,74.82
2019-04-14T10:38:13.030Z,75.49
2019-04-14T10:39:12.976Z,74.73
2019-04-14T10:40:12.920Z,73.59
2019-04-14T10:41:12.893Z,73.69
2019-04-14T10:42:12.806Z,73.69
2019-04-14T10:43:12.770Z,73.78
2019-04-14T10:44:12.692Z,74.63
2019-04-14T10:45:12.652Z,73.88
2019-04-14T10:46:12.624Z,73.49
2019-04-14T10:47:12.624Z,73.63
2019-04-14T10:48:12.486Z,73.53
2019-04-14T10:49:12.440Z,73.15
2019-04-14T10:50:12.370Z,72.77
2019-04-14T10:51:12.328Z,72.39
2019-04-14T10:52:12.296Z,72.39
2019-04-14T10:53:12.224Z,72.39
2019-04-14T10:54:12.311Z,72.39
2019-04-14T10:55:12.114Z,72.42
2019-04-14T10:56:12.056Z,72.33
2019-04-14T10:57:12.031Z,72.14
2019-04-14T10:58:11.955Z,71.47
2019-04-14T10:59:11.899Z,72.01
2019-04-14T11:00:11.848Z,72.33
2019-04-14T11:01:11.797Z,72.52
2019-04-14T11:02:11.777Z,72.62
2019-04-14T11:03:11.687Z,71.76
2019-04-14T11:04:11.641Z,70.90
2019-04-14T11:05:11.585Z,70.52
2019-04-14T11:06:11.526Z,71.28
2019-04-14T11:07:11.501Z,71.38
2019-04-14T11:08:11.427Z,70.90
2019-04-14T11:09:11.378Z,71.47
2019-04-14T11:10:11.323Z,71.28
2019-04-14T11:11:11.296Z,71.67
2019-04-14T11:12:11.380Z,71.67
2019-04-14T11:13:11.171Z,71.32
2019-04-14T11:14:11.109Z,71.47
2019-04-14T11:15:11.058Z,71.57
2019-04-14T11:16:11.008Z,71.19
2019-04-14T11:17:10.977Z,72.33
2019-04-14T11:18:10.901Z,71.19
2019-04-14T11:19:10.852Z,71.44
2019-04-14T11:20:10.798Z,72.58
2019-04-14T11:21:10.745Z,72.58
2019-04-14T11:22:10.715Z,72.49
2019-04-14T11:23:10.639Z,73.06
2019-04-14T11:24:10.591Z,73.63
2019-04-14T11:25:10.540Z,72.86
2019-04-14T11:26:10.485Z,73.91
2019-04-14T11:27:10.453Z,72.58
2019-04-14T11:28:10.376Z,72.58
2019-04-14T11:29:10.362Z,72.39
2019-04-14T11:30:10.268Z,72.01
2019-04-14T11:31:10.220Z,72.49
2019-04-14T11:32:10.188Z,72.67
2019-04-14T11:33:10.118Z,72.58
2019-04-14T11:34:10.060Z,72.77
2019-04-14T11:35:10.003Z,72.58
2019-04-14T11:36:09.955Z,73.15
2019-04-14T11:37:09.923Z,73.91
2019-04-14T11:38:09.848Z,73.53
2019-04-14T11:39:09.796Z,73.82
2019-04-14T11:40:09.745Z,72.49
2019-04-14T11:41:09.685Z,72.42
2019-04-14T11:42:09.658Z,72.49
2019-04-14T11:43:09.583Z,72.90
2019-04-14T11:44:09.533Z,73.00
2019-04-14T11:45:09.496Z,71.63
2019-04-14T11:46:09.448Z,71.44
2019-04-14T11:47:09.433Z,71.82
2019-04-14T11:48:09.318Z,72.58
2019-04-14T11:49:09.266Z,72.67
2019-04-14T11:50:09.219Z,73.25
2019-04-14T11:51:09.167Z,73.25
2019-04-14T11:52:09.137Z,73.34
2019-04-14T11:53:09.057Z,72.62
2019-04-14T11:54:09.013Z,72.30
2019-04-14T11:55:08.964Z,72.42
2019-04-14T11:56:08.898Z,72.24
2019-04-14T11:57:08.868Z,71.47
2019-04-14T11:58:08.792Z,71.38
2019-04-14T11:59:08.737Z,72.05
2019-04-14T12:00:08.686Z,71.95
2019-04-14T12:01:08.638Z,72.33
2019-04-14T12:02:08.617Z,72.14
2019-04-14T12:03:08.531Z,72.11
2019-04-14T12:04:08.480Z,72.11
2019-04-14T12:05:08.432Z,72.58
2019-04-14T12:06:08.369Z,72.30
2019-04-14T12:07:08.321Z,72.49
2019-04-14T12:08:08.294Z,73.34
2019-04-14T12:09:08.211Z,72.67
2019-04-14T12:10:08.164Z,72.39
2019-04-14T12:11:08.112Z,72.67
2019-04-14T12:12:08.047Z,72.49
2019-04-14T12:13:08.031Z,73.06
2019-04-14T12:14:07.961Z,72.49
2019-04-14T12:15:07.907Z,73.53
2019-04-14T12:16:07.849Z,73.44
2019-04-14T12:17:07.797Z,73.44
2019-04-14T12:18:07.764Z,73.15
2019-04-14T12:19:07.689Z,72.96
2019-04-14T12:20:07.637Z,72.67
2019-04-14T12:21:07.592Z,73.06
2019-04-14T12:22:08.718Z,72.58
2019-04-14T12:23:07.513Z,72.49
2019-04-14T12:24:07.427Z,72.39
2019-04-14T12:25:07.378Z,72.77
2019-04-14T12:26:07.325Z,72.39
2019-04-14T12:27:07.274Z,72.86
2019-04-14T12:28:07.284Z,73.72
2019-04-14T12:29:07.164Z,72.58
2019-04-14T12:30:07.107Z,73.44
2019-04-14T12:31:07.064Z,72.77
2019-04-14T12:32:07.005Z,71.63
2019-04-14T12:33:06.973Z,71.63
2019-04-14T12:34:06.910Z,71.91
2019-04-14T12:35:06.871Z,71.63
2019-04-14T12:36:06.791Z,71.86
2019-04-14T12:37:06.736Z,70.90
2019-04-14T12:38:06.713Z,71.28
2019-04-14T12:39:06.635Z,70.52
2019-04-14T12:40:07.347Z,70.01
2019-04-14T12:41:06.531Z,70.81
2019-04-14T12:42:06.477Z,70.81
2019-04-14T12:43:06.454Z,71.47
2019-04-14T12:44:06.442Z,70.90
2019-04-14T12:45:06.326Z,70.90
2019-04-14T12:46:06.463Z,70.05
2019-04-14T12:47:06.214Z,69.76
2019-04-14T12:48:06.187Z,69.76
2019-04-14T12:49:06.103Z,69.95
2019-04-14T12:50:06.064Z,70.49
2019-04-14T12:51:06.018Z,70.20
2019-04-14T12:52:05.957Z,70.77
2019-04-14T12:53:05.921Z,70.49
2019-04-14T12:54:05.847Z,70.77
2019-04-14T12:55:05.795Z,71.44
2019-04-14T12:56:05.752Z,72.39
2019-04-14T12:57:05.695Z,71.53
2019-04-14T12:58:05.669Z,71.15
2019-04-14T12:59:05.580Z,71.63
2019-04-14T13:00:05.528Z,70.97
2019-04-14T13:01:05.491Z,70.97
2019-04-14T13:02:05.419Z,71.38
2019-04-14T13:03:05.391Z,70.81
2019-04-14T13:04:05.325Z,70.14
2019-04-14T13:05:05.266Z,70.52
2019-04-14T13:06:05.213Z,70.62
2019-04-14T13:07:05.166Z,70.14
2019-04-14T13:08:05.141Z,70.14
2019-04-14T13:09:05.051Z,70.90